Time,TemperatureF,DewpointF,PressureIn,WindDirection,WindDirectionDegrees,WindSpeedMPH,WindSpeedGustMPH,Humidity,HourlyPrecipIn,Conditions,Clouds,dailyrainin,SoftwareType,DateUTC
2013-10-21 00:01:00,57.9,54.4,30.02,North,0,0.0,0.0,88,0.00,,,0.00,WUHU21623XXSP,2013-10-21 05:01:00,
2013-10-21 00:06:00,57.9,54.4,30.02,North,0,0.0,0.0,88,0.00,,,0.00,WUHU21623XXSP,2013-10-21 05:06:00,
2013-10-21 00:11:00,57.9,54.4,30.02,North,0,0.0,0.0,88,0.00,,,0.00,WUHU21623XXSP,2013-10-21 05:11:00,
2013-10-21 00:16:00,57.9,54.4,30.03,North,0,0.0,0.0,88,0.00,,,0.00,WUHU21623XXSP,2013-10-21 05:16:00,
2013-10-21 00:21:00,57.9,54.4,30.02,North,0,0.0,0.0,88,0.00,,,0.00,WUHU21623XXSP,2013-10-21 05:21:00,
2013-10-21 00:26:00,57.9,54.4,30.02,North,0,0.0,0.0,88,0.00,,,0.00,WUHU21623XXSP,2013-10-21 05:26:00,
2013-10-21 00:31:00,57.9,54.4,30.03,North,0,0.0,0.0,88,0.00,,,0.00,WUHU21623XXSP,2013-10-21 05:31:00,
2013-10-21 00:36:00,57.9,54.4,30.02,North,0,0.0,0.0,88,0.00,,,0.00,WUHU21623XXSP,2013-10-21 05:36:00,
2013-10-21 00:41:00,57.9,54.4,30.02,North,0,0.0,0.0,88,0.00,,,0.00,WUHU21623XXSP,2013-10-21 05:41:00,
2013-10-21 00:46:00,57.9,54.4,30.02,North,0,0.0,0.0,88,0.00,,,0.00,WUHU21623XXSP,2013-10-21 05:46:00,
2013-10-21 00:51:00,57.9,54.4,30.02,North,0,0.0,0.0,88,0.00,,,0.00,WUHU21623XXSP,2013-10-21 05:51:00,
2013-10-21 00:56:00,57.9,54.4,30.02,North,0,0.0,0.0,88,0.00,,,0.00,WUHU21623XXSP,2013-10-21 05:56:00,
2013-10-21 01:01:00,58.1,54.6,30.03,North,0,0.0,0.0,88,0.00,,,0.00,WUHU21623XXSP,2013-10-21 06:01:00,
2013-10-21 01:06:00,58.1,54.6,30.03,North,0,0.0,0.0,88,0.00,,,0.00,WUHU21623XXSP,2013-10-21 06:06:00,
2013-10-21 01:11:00,58.1,54.6,30.03,North,0,0.0,0.0,88,0.00,,,0.00,WUHU21623XXSP,2013-10-21 06:11:00,
2013-10-21 01:16:00,58.1,54.6,30.03,North,0,0.0,0.0,88,0.00,,,0.00,WUHU21623XXSP,2013-10-21 06:16:00,
2013-10-21 01:21:00,58.1,54.6,30.02,North,0,0.0,0.0,89,0.00,,,0.00,WUHU21623XXSP,2013-10-21 06:21:00,
2013-10-21 01:26:00,58.1,54.9,30.02,North,0,0.0,0.0,89,0.00,,,0.00,WUHU21623XXSP,2013-10-21 06:26:00,
2013-10-21 01:31:00,58.1,54.9,30.03,North,0,0.0,0.0,89,0.00,,,0.00,WUHU21623XXSP,2013-10-21 06:31:00,
2013-10-21 01:36:00,58.1,54.9,30.03,North,0,0.0,0.0,89,0.00,,,0.00,WUHU21623XXSP,2013-10-21 06:36:00,
2013-10-21 01:41:00,58.1,54.9,30.02,North,0,0.0,0.0,89,0.00,,,0.00,WUHU21623XXSP,2013-10-21 06:41:00,
2013-10-21 01:46:00,58.1,54.9,30.02,North,0,0.0,0.0,89,0.00,,,0.00,WUHU21623XXSP,2013-10-21 06:46:00,
2013-10-21 01:51:00,58.1,54.9,30.02,North,0,0.0,0.0,89,0.00,,,0.00,WUHU21623XXSP,2013-10-21 06:51:00,
2013-10-21 01:56:00,58.1,54.9,30.02,North,0,0.0,0.0,89,0.00,,,0.00,WUHU21623XXSP,2013-10-21 06:56:00,
2013-10-21 02:01:00,58.1,54.9,30.03,North,0,0.0,0.0,89,0.00,,,0.00,WUHU21623XXSP,2013-10-21 07:01:00,
2013-10-21 02:06:00,57.9,54.7,30.03,North,0,0.0,0.0,89,0.00,,,0.00,WUHU21623XXSP,2013-10-21 07:06:00,
2013-10-21 02:11:00,57.9,54.7,30.03,North,0,0.0,0.0,89,0.00,,,0.00,WUHU21623XXSP,2013-10-21 07:11:00,
2013-10-21 02:16:00,57.9,54.7,30.03,North,0,0.0,0.0,89,0.00,,,0.00,WUHU21623XXSP,2013-10-21 07:16:00,
2013-10-21 02:21:00,57.9,54.7,30.02,North,0,0.0,0.0,89,0.00,,,0.00,WUHU21623XXSP,2013-10-21 07:21:00,
2013-10-21 02:26:00,57.9,54.7,30.03,North,0,0.0,0.0,89,0.00,,,0.00,WUHU21623XXSP,2013-10-21 07:26:00,
2013-10-21 02:31:00,57.9,54.7,30.03,North,0,0.0,0.0,89,0.00,,,0.00,WUHU21623XXSP,2013-10-21 07:31:00,
2013-10-21 02:36:00,57.9,54.7,30.03,North,0,0.0,0.0,89,0.00,,,0.00,WUHU21623XXSP,2013-10-21 07:36:00,
2013-10-21 02:41:00,57.9,54.7,30.03,North,0,0.0,0.0,89,0.00,,,0.00,WUHU21623XXSP,2013-10-21 07:41:00,
2013-10-21 02:46:00,57.7,54.7,30.03,North,0,0.0,0.0,89,0.00,,,0.00,WUHU21623XXSP,2013-10-21 07:46:00,
2013-10-21 02:51:00,57.7,54.5,30.03,North,0,0.0,0.0,89,0.00,,,0.00,WUHU21623XXSP,2013-10-21 07:51:00,
2013-10-21 02:56:00,57.7,54.5,30.03,North,0,0.0,0.0,89,0.00,,,0.00,WUHU21623XXSP,2013-10-21 07:56:00,
2013-10-21 03:01:00,57.7,54.5,30.03,North,0,0.0,0.0,89,0.00,,,0.00,WUHU21623XXSP,2013-10-21 08:01:00,
2013-10-21 03:06:00,57.7,54.5,30.03,North,0,0.0,0.0,89,0.00,,,0.00,WUHU21623XXSP,2013-10-21 08:06:00,
2013-10-21 03:11:00,57.6,54.4,30.02,North,0,0.0,0.0,89,0.00,,,0.00,WUHU21623XXSP,2013-10-21 08:11:00,
2013-10-21 03:16:00,57.6,54.4,30.02,North,0,0.0,0.0,89,0.00,,,0.00,WUHU21623XXSP,2013-10-21 08:16:00,
2013-10-21 03:21:00,57.4,54.2,30.03,North,0,0.0,0.0,89,0.00,,,0.00,WUHU21623XXSP,2013-10-21 08:21:00,
2013-10-21 03:26:00,57.4,54.2,30.03,North,0,0.0,0.0,89,0.00,,,0.00,WUHU21623XXSP,2013-10-21 08:26:00,
2013-10-21 03:31:00,57.4,54.2,30.03,North,0,0.0,0.0,89,0.00,,,0.00,WUHU21623XXSP,2013-10-21 08:31:00,
2013-10-21 03:36:00,57.4,54.2,30.02,North,0,0.0,0.0,89,0.00,,,0.00,WUHU21623XXSP,2013-10-21 08:36:00,
2013-10-21 03:41:00,57.4,54.2,30.03,North,0,0.0,0.0,89,0.00,,,0.00,WUHU21623XXSP,2013-10-21 08:41:00,
2013-10-21 03:46:00,57.2,54.0,30.03,North,0,0.0,0.0,89,0.00,,,0.00,WUHU21623XXSP,2013-10-21 08:46:00,
2013-10-21 03:51:00,57.0,53.8,30.02,North,0,0.0,0.0,89,0.00,,,0.00,WUHU21623XXSP,2013-10-21 08:51:00,
2013-10-21 03:56:00,57.0,53.8,30.03,North,0,0.0,0.0,89,0.00,,,0.00,WUHU21623XXSP,2013-10-21 08:56:00,
2013-10-21 04:01:00,57.0,53.8,30.03,North,0,0.0,0.0,89,0.00,,,0.00,WUHU21623XXSP,2013-10-21 09:01:00,
2013-10-21 04:11:00,57.0,53.8,30.03,North,0,0.0,0.0,89,0.00,,,0.00,WUHU21623XXSP,2013-10-21 09:11:00,
2013-10-21 04:16:00,57.0,53.8,30.03,North,0,0.0,0.0,89,0.00,,,0.00,WUHU21623XXSP,2013-10-21 09:16:00,
2013-10-21 04:21:00,57.0,54.1,30.03,North,0,0.0,0.0,90,0.00,,,0.00,WUHU21623XXSP,2013-10-21 09:21:00,
2013-10-21 04:26:00,57.0,54.1,30.03,North,0,0.0,0.0,90,0.00,,,0.00,WUHU21623XXSP,2013-10-21 09:26:00,
2013-10-21 04:31:00,57.0,54.1,30.03,North,0,0.0,0.0,90,0.00,,,0.00,WUHU21623XXSP,2013-10-21 09:31:00,
2013-10-21 04:36:00,57.0,54.1,30.03,North,0,0.0,0.0,90,0.00,,,0.00,WUHU21623XXSP,2013-10-21 09:36:00,
2013-10-21 04:41:00,57.0,54.1,30.03,North,0,0.0,0.0,90,0.00,,,0.00,WUHU21623XXSP,2013-10-21 09:41:00,
2013-10-21 04:46:00,57.0,54.1,30.03,North,0,0.0,0.0,90,0.00,,,0.00,WUHU21623XXSP,2013-10-21 09:46:00,
2013-10-21 04:51:00,57.0,54.1,30.03,North,0,0.0,0.0,90,0.00,,,0.00,WUHU21623XXSP,2013-10-21 09:51:00,
2013-10-21 04:56:00,57.0,54.1,30.03,North,0,0.0,0.0,90,0.00,,,0.00,WUHU21623XXSP,2013-10-21 09:56:00,
2013-10-21 05:01:00,57.0,54.1,30.03,North,0,0.0,0.0,90,0.00,,,0.00,WUHU21623XXSP,2013-10-21 10:01:00,
2013-10-21 05:06:00,57.0,54.1,30.03,North,0,0.0,0.0,90,0.00,,,0.00,WUHU21623XXSP,2013-10-21 10:06:00,
2013-10-21 05:11:00,57.0,54.1,30.03,North,0,0.0,0.0,90,0.00,,,0.00,WUHU21623XXSP,2013-10-21 10:11:00,
2013-10-21 05:16:00,57.0,54.1,30.03,North,0,0.0,0.0,90,0.00,,,0.00,WUHU21623XXSP,2013-10-21 10:16:00,
2013-10-21 05:21:00,57.0,54.1,30.03,North,0,0.0,0.0,90,0.00,,,0.00,WUHU21623XXSP,2013-10-21 10:21:00,
2013-10-21 05:26:00,56.8,54.0,30.03,North,0,0.0,0.0,90,0.00,,,0.00,WUHU21623XXSP,2013-10-21 10:26:00,
2013-10-21 05:31:00,56.8,54.0,30.03,North,0,0.0,0.0,90,0.00,,,0.00,WUHU21623XXSP,2013-10-21 10:31:00,
2013-10-21 05:36:00,56.8,54.0,30.03,North,0,0.0,0.0,90,0.00,,,0.00,WUHU21623XXSP,2013-10-21 10:36:00,
2013-10-21 05:41:00,56.8,54.0,30.03,North,0,0.0,0.0,90,0.00,,,0.00,WUHU21623XXSP,2013-10-21 10:41:00,
2013-10-21 05:46:00,56.8,54.0,30.03,North,0,0.0,0.0,90,0.00,,,0.00,WUHU21623XXSP,2013-10-21 10:46:00,
2013-10-21 05:51:00,56.8,54.0,30.03,North,0,0.0,0.0,90,0.00,,,0.00,WUHU21623XXSP,2013-10-21 10:51:00,
2013-10-21 05:56:00,56.8,54.0,30.03,North,0,0.0,0.0,90,0.00,,,0.00,WUHU21623XXSP,2013-10-21 10:56:00,
2013-10-21 06:01:00,56.8,54.0,30.03,North,0,0.0,0.0,90,0.00,,,0.00,WUHU21623XXSP,2013-10-21 11:01:00,
2013-10-21 06:06:00,56.8,54.0,30.03,North,0,0.0,0.0,90,0.00,,,0.00,WUHU21623XXSP,2013-10-21 11:06:00,
2013-10-21 06:11:00,56.7,53.8,30.03,North,0,0.0,0.0,90,0.00,,,0.00,WUHU21623XXSP,2013-10-21 11:11:00,
2013-10-21 06:16:00,56.8,54.0,30.03,North,0,0.0,0.0,90,0.00,,,0.00,WUHU21623XXSP,2013-10-21 11:16:00,
2013-10-21 06:21:00,56.7,53.8,30.02,North,0,0.0,0.0,90,0.00,,,0.00,WUHU21623XXSP,2013-10-21 11:21:00,
2013-10-21 06:26:00,56.7,53.8,30.03,North,0,0.0,0.0,90,0.00,,,0.00,WUHU21623XXSP,2013-10-21 11:26:00,
2013-10-21 06:31:00,56.7,54.1,30.03,North,0,0.0,0.0,91,0.00,,,0.00,WUHU21623XXSP,2013-10-21 11:31:00,
2013-10-21 06:36:00,56.5,53.9,30.03,North,0,0.0,0.0,91,0.00,,,0.00,WUHU21623XXSP,2013-10-21 11:36:00,
2013-10-21 06:41:00,56.7,54.1,30.03,North,0,0.0,0.0,91,0.00,,,0.00,WUHU21623XXSP,2013-10-21 11:41:00,
2013-10-21 06:46:00,56.7,53.9,30.04,North,0,0.0,0.0,91,0.00,,,0.00,WUHU21623XXSP,2013-10-21 11:46:00,
2013-10-21 06:51:00,56.7,54.1,30.04,North,0,0.0,0.0,91,0.00,,,0.00,WUHU21623XXSP,2013-10-21 11:51:00,
2013-10-21 06:56:00,56.8,54.2,30.05,North,0,0.0,0.0,91,0.00,,,0.00,WUHU21623XXSP,2013-10-21 11:56:00,
2013-10-21 07:01:00,56.8,54.2,30.05,North,0,0.0,0.0,91,0.00,,,0.00,WUHU21623XXSP,2013-10-21 12:01:00,
2013-10-21 07:06:00,56.8,54.2,30.05,North,0,0.0,0.0,91,0.00,,,0.00,WUHU21623XXSP,2013-10-21 12:06:00,
2013-10-21 07:11:00,56.8,54.2,30.05,North,0,0.0,0.0,91,0.00,,,0.00,WUHU21623XXSP,2013-10-21 12:11:00,
2013-10-21 07:16:00,56.8,54.2,30.05,North,0,0.0,0.0,91,0.00,,,0.00,WUHU21623XXSP,2013-10-21 12:16:00,
2013-10-21 07:21:00,57.0,54.4,30.05,North,0,0.0,0.0,91,0.00,,,0.00,WUHU21623XXSP,2013-10-21 12:21:00,
2013-10-21 07:26:00,57.0,54.4,30.05,North,0,0.0,0.0,91,0.00,,,0.00,WUHU21623XXSP,2013-10-21 12:26:00,
2013-10-21 07:31:00,57.0,54.4,30.05,North,0,0.0,0.0,91,0.00,,,0.00,WUHU21623XXSP,2013-10-21 12:31:00,
2013-10-21 07:36:00,57.0,54.4,30.05,North,0,0.0,0.0,91,0.00,,,0.00,WUHU21623XXSP,2013-10-21 12:36:00,
2013-10-21 07:41:00,57.2,54.6,30.05,North,0,0.0,0.0,91,0.00,,,0.00,WUHU21623XXSP,2013-10-21 12:41:00,
2013-10-21 07:46:00,57.2,54.6,30.05,North,0,0.0,0.0,91,0.00,,,0.00,WUHU21623XXSP,2013-10-21 12:46:00,
2013-10-21 07:51:00,57.2,54.6,30.05,North,0,0.0,0.0,91,0.00,,,0.00,WUHU21623XXSP,2013-10-21 12:51:00,
2013-10-21 07:56:00,57.4,54.8,30.05,North,0,0.0,0.0,91,0.00,,,0.00,WUHU21623XXSP,2013-10-21 12:56:00,
2013-10-21 08:01:00,57.4,54.8,30.05,North,0,0.0,0.0,91,0.00,,,0.00,WUHU21623XXSP,2013-10-21 13:01:00,
2013-10-21 08:06:00,57.4,54.8,30.05,North,0,0.0,0.0,91,0.00,,,0.00,WUHU21623XXSP,2013-10-21 13:06:00,
2013-10-21 08:11:00,57.6,55.0,30.05,North,0,0.0,0.0,91,0.00,,,0.00,WUHU21623XXSP,2013-10-21 13:11:00,
2013-10-21 08:16:00,57.7,55.1,30.05,North,0,0.0,0.0,91,0.00,,,0.00,WUHU21623XXSP,2013-10-21 13:16:00,
2013-10-21 08:21:00,57.7,55.1,30.06,North,0,0.0,0.0,91,0.00,,,0.00,WUHU21623XXSP,2013-10-21 13:21:00,
2013-10-21 08:26:00,57.9,55.3,30.06,North,0,0.0,0.0,91,0.00,,,0.00,WUHU21623XXSP,2013-10-21 13:26:00,
2013-10-21 08:31:00,58.1,55.5,30.06,North,0,0.0,0.0,91,0.00,,,0.00,WUHU21623XXSP,2013-10-21 13:31:00,
2013-10-21 08:36:00,58.3,55.5,30.07,North,0,0.0,0.0,91,0.00,,,0.00,WUHU21623XXSP,2013-10-21 13:36:00,
2013-10-21 08:41:00,58.5,55.9,30.07,North,0,0.0,0.0,91,0.00,,,0.00,WUHU21623XXSP,2013-10-21 13:41:00,
2013-10-21 08:46:00,58.6,56.0,30.07,North,0,0.0,0.0,91,0.00,,,0.00,WUHU21623XXSP,2013-10-21 13:46:00,
2013-10-21 08:51:00,58.8,56.2,30.07,North,0,0.0,0.0,91,0.00,,,0.00,WUHU21623XXSP,2013-10-21 13:51:00,
2013-10-21 08:56:00,59.2,56.4,30.07,North,0,0.0,0.0,91,0.00,,,0.00,WUHU21623XXSP,2013-10-21 13:56:00,
2013-10-21 09:01:00,59.4,56.8,30.08,North,0,0.0,0.0,91,0.00,,,0.00,WUHU21623XXSP,2013-10-21 14:01:00,
2013-10-21 09:06:00,59.7,56.8,30.07,North,0,0.0,0.0,90,0.00,,,0.00,WUHU21623XXSP,2013-10-21 14:06:00,
2013-10-21 09:11:00,59.9,57.0,30.08,North,0,0.0,0.0,90,0.00,,,0.00,WUHU21623XXSP,2013-10-21 14:11:00,
2013-10-21 09:16:00,60.4,57.6,30.07,North,0,0.0,0.0,90,0.00,,,0.00,WUHU21623XXSP,2013-10-21 14:16:00,
2013-10-21 09:21:00,60.6,57.7,30.07,North,0,0.0,0.0,90,0.00,,,0.00,WUHU21623XXSP,2013-10-21 14:21:00,
2013-10-21 09:26:00,61.0,58.1,30.07,North,0,0.0,0.0,90,0.00,,,0.00,WUHU21623XXSP,2013-10-21 14:26:00,
2013-10-21 09:31:00,61.5,58.3,30.07,North,0,0.0,0.0,89,0.00,,,0.00,WUHU21623XXSP,2013-10-21 14:31:00,
2013-10-21 09:36:00,61.7,58.2,30.07,North,0,0.0,0.0,88,0.00,,,0.00,WUHU21623XXSP,2013-10-21 14:36:00,
2013-10-21 09:41:00,62.1,58.2,30.07,North,0,0.0,0.0,87,0.00,,,0.00,WUHU21623XXSP,2013-10-21 14:41:00,
2013-10-21 09:46:00,62.4,58.5,30.07,North,0,0.0,0.0,87,0.00,,,0.00,WUHU21623XXSP,2013-10-21 14:46:00,
2013-10-21 09:51:00,62.4,58.5,30.07,North,0,0.0,0.0,87,0.00,,,0.00,WUHU21623XXSP,2013-10-21 14:51:00,
2013-10-21 09:56:00,62.8,58.5,30.06,North,0,0.0,0.0,86,0.00,,,0.00,WUHU21623XXSP,2013-10-21 14:56:00,
2013-10-21 10:01:00,63.1,58.5,30.07,North,0,0.0,0.0,85,0.00,,,0.00,WUHU21623XXSP,2013-10-21 15:01:00,
2013-10-21 10:06:00,63.3,58.4,30.07,North,0,0.0,0.0,84,0.00,,,0.00,WUHU21623XXSP,2013-10-21 15:06:00,
2013-10-21 10:11:00,63.7,58.7,30.07,North,0,0.0,0.0,84,0.00,,,0.00,WUHU21623XXSP,2013-10-21 15:11:00,
2013-10-21 10:16:00,64.0,58.8,30.07,North,0,0.0,0.0,83,0.00,,,0.00,WUHU21623XXSP,2013-10-21 15:16:00,
2013-10-21 10:21:00,64.0,58.8,30.06,North,0,0.0,0.0,83,0.00,,,0.00,WUHU21623XXSP,2013-10-21 15:21:00,
2013-10-21 10:26:00,64.2,58.9,30.06,North,0,0.0,0.0,83,0.00,,,0.00,WUHU21623XXSP,2013-10-21 15:26:00,
2013-10-21 10:31:00,64.6,58.9,30.07,North,0,0.0,0.0,82,0.00,,,0.00,WUHU21623XXSP,2013-10-21 15:31:00,
2013-10-21 10:36:00,64.9,59.0,30.08,North,0,0.0,0.0,81,0.00,,,0.00,WUHU21623XXSP,2013-10-21 15:36:00,
2013-10-21 10:41:00,65.1,58.8,30.08,North,0,0.0,0.0,80,0.00,,,0.00,WUHU21623XXSP,2013-10-21 15:41:00,
2013-10-21 10:46:00,65.8,59.2,30.08,North,0,0.0,0.0,79,0.00,,,0.00,WUHU21623XXSP,2013-10-21 15:46:00,
2013-10-21 10:51:00,66.0,59.0,30.07,North,0,0.0,0.0,78,0.00,,,0.00,WUHU21623XXSP,2013-10-21 15:51:00,
2013-10-21 10:56:00,66.6,59.5,30.07,North,0,0.0,0.0,78,0.00,,,0.00,WUHU21623XXSP,2013-10-21 15:56:00,
2013-10-21 11:01:00,67.1,58.9,30.06,North,0,0.0,0.0,75,0.00,,,0.00,WUHU21623XXSP,2013-10-21 16:01:00,
2013-10-21 11:06:00,67.6,59.8,30.07,North,0,0.0,0.0,76,0.00,,,0.00,WUHU21623XXSP,2013-10-21 16:06:00,
2013-10-21 11:11:00,67.6,59.5,30.06,North,0,0.0,0.0,75,0.00,,,0.00,WUHU21623XXSP,2013-10-21 16:11:00,
2013-10-21 11:16:00,68.2,60.0,30.07,North,0,0.0,0.0,75,0.00,,,0.00,WUHU21623XXSP,2013-10-21 16:16:00,
2013-10-21 11:21:00,68.4,60.5,30.07,North,0,0.0,0.0,76,0.00,,,0.00,WUHU21623XXSP,2013-10-21 16:21:00,
2013-10-21 11:26:00,68.5,60.7,30.06,North,0,0.0,0.0,76,0.00,,,0.00,WUHU21623XXSP,2013-10-21 16:26:00,
2013-10-21 11:31:00,68.9,60.6,30.06,North,0,0.0,0.0,75,0.00,,,0.00,WUHU21623XXSP,2013-10-21 16:31:00,
2013-10-21 11:36:00,69.1,60.4,30.07,North,0,0.0,0.0,74,0.00,,,0.00,WUHU21623XXSP,2013-10-21 16:36:00,
2013-10-21 11:41:00,69.1,60.4,30.07,North,0,0.0,0.0,74,0.00,,,0.00,WUHU21623XXSP,2013-10-21 16:41:00,
2013-10-21 11:46:00,69.3,60.6,30.07,North,0,0.0,0.0,74,0.00,,,0.00,WUHU21623XXSP,2013-10-21 16:46:00,
2013-10-21 11:51:00,69.4,60.7,30.07,North,0,0.0,0.0,74,0.00,,,0.00,WUHU21623XXSP,2013-10-21 16:51:00,
2013-10-21 11:56:00,69.4,60.7,30.06,North,0,0.0,0.0,74,0.00,,,0.00,WUHU21623XXSP,2013-10-21 16:56:00,
2013-10-21 12:01:00,69.6,60.9,30.06,North,0,0.0,0.0,74,0.00,,,0.00,WUHU21623XXSP,2013-10-21 17:01:00,
2013-10-21 12:06:00,69.6,60.9,30.06,North,0,0.0,0.0,74,0.00,,,0.00,WUHU21623XXSP,2013-10-21 17:06:00,
2013-10-21 12:11:00,70.0,61.2,30.06,North,0,0.0,0.0,74,0.00,,,0.00,WUHU21623XXSP,2013-10-21 17:11:00,
2013-10-21 12:16:00,70.0,60.9,30.05,North,0,0.0,0.0,73,0.00,,,0.00,WUHU21623XXSP,2013-10-21 17:16:00,
2013-10-21 12:21:00,70.2,60.7,30.05,North,0,0.0,0.0,72,0.00,,,0.00,WUHU21623XXSP,2013-10-21 17:21:00,
2013-10-21 12:26:00,70.2,60.3,30.05,North,0,0.0,0.0,71,0.00,,,0.00,WUHU21623XXSP,2013-10-21 17:26:00,
2013-10-21 12:31:00,70.2,60.7,30.05,North,0,0.0,0.0,72,0.00,,,0.00,WUHU21623XXSP,2013-10-21 17:31:00,
2013-10-21 12:36:00,70.2,60.7,30.05,North,0,0.0,0.0,72,0.00,,,0.00,WUHU21623XXSP,2013-10-21 17:36:00,
2013-10-21 12:41:00,70.2,60.7,30.05,North,0,0.0,0.0,72,0.00,,,0.00,WUHU21623XXSP,2013-10-21 17:41:00,
2013-10-21 12:46:00,70.3,60.8,30.04,North,0,0.0,0.0,72,0.00,,,0.00,WUHU21623XXSP,2013-10-21 17:46:00,
2013-10-21 12:51:00,70.3,60.8,30.04,North,0,0.0,0.0,72,0.00,,,0.00,WUHU21623XXSP,2013-10-21 17:51:00,
2013-10-21 12:56:00,70.5,61.0,30.04,North,0,0.0,0.0,72,0.00,,,0.00,WUHU21623XXSP,2013-10-21 17:56:00,
2013-10-21 13:01:00,70.7,61.2,30.04,North,0,0.0,0.0,72,0.00,,,0.00,WUHU21623XXSP,2013-10-21 18:01:00,
2013-10-21 13:06:00,70.7,61.2,30.04,North,0,0.0,0.0,72,0.00,,,0.00,WUHU21623XXSP,2013-10-21 18:06:00,
2013-10-21 13:11:00,70.7,60.8,30.04,North,0,0.0,0.0,71,0.00,,,0.00,WUHU21623XXSP,2013-10-21 18:11:00,
2013-10-21 13:16:00,70.9,61.0,30.04,North,0,0.0,0.0,71,0.00,,,0.00,WUHU21623XXSP,2013-10-21 18:16:00,
2013-10-21 13:21:00,70.9,61.4,30.04,North,0,0.0,0.0,71,0.00,,,0.00,WUHU21623XXSP,2013-10-21 18:21:00,
2013-10-21 13:26:00,71.2,61.4,30.03,North,0,0.0,0.0,71,0.00,,,0.00,WUHU21623XXSP,2013-10-21 18:26:00,
2013-10-21 13:31:00,71.4,61.5,30.03,North,0,0.0,0.0,71,0.00,,,0.00,WUHU21623XXSP,2013-10-21 18:31:00,
2013-10-21 13:36:00,71.8,61.9,30.04,North,0,0.0,0.0,71,0.00,,,0.00,WUHU21623XXSP,2013-10-21 18:36:00,
2013-10-21 13:41:00,72.1,62.6,30.03,North,0,0.0,0.0,72,0.00,,,0.00,WUHU21623XXSP,2013-10-21 18:41:00,
2013-10-21 13:46:00,72.5,62.6,30.04,North,0,0.0,0.0,71,0.00,,,0.00,WUHU21623XXSP,2013-10-21 18:46:00,
2013-10-21 13:51:00,72.9,62.6,30.03,North,0,0.0,0.0,70,0.00,,,0.00,WUHU21623XXSP,2013-10-21 18:51:00,
2013-10-21 13:56:00,73.2,62.3,30.03,North,0,0.0,0.0,69,0.00,,,0.00,WUHU21623XXSP,2013-10-21 18:56:00,
2013-10-21 14:01:00,73.2,62.5,30.02,North,0,0.0,0.0,69,0.00,,,0.00,WUHU21623XXSP,2013-10-21 19:01:00,
2013-10-21 14:06:00,73.2,62.1,30.02,North,0,0.0,0.0,68,0.00,,,0.00,WUHU21623XXSP,2013-10-21 19:06:00,
2013-10-21 14:11:00,73.2,62.5,30.01,North,0,0.0,0.0,69,0.00,,,0.00,WUHU21623XXSP,2013-10-21 19:11:00,
2013-10-21 14:16:00,73.2,62.1,30.01,North,0,0.0,0.0,68,0.00,,,0.00,WUHU21623XXSP,2013-10-21 19:16:00,
2013-10-21 14:21:00,73.2,62.5,30.01,North,0,0.0,0.0,69,0.00,,,0.00,WUHU21623XXSP,2013-10-21 19:21:00,
2013-10-21 14:26:00,73.2,63.0,30.01,North,0,0.0,0.0,70,0.00,,,0.00,WUHU21623XXSP,2013-10-21 19:26:00,
2013-10-21 14:31:00,73.2,62.1,30.00,North,0,0.0,0.0,68,0.00,,,0.00,WUHU21623XXSP,2013-10-21 19:31:00,
2013-10-21 14:36:00,73.2,62.5,30.00,North,0,0.0,0.0,69,0.00,,,0.00,WUHU21623XXSP,2013-10-21 19:36:00,
2013-10-21 14:41:00,73.2,62.1,29.99,North,0,0.0,0.0,68,0.00,,,0.00,WUHU21623XXSP,2013-10-21 19:41:00,
2013-10-21 14:46:00,73.0,61.9,29.98,North,0,0.0,0.0,68,0.00,,,0.00,WUHU21623XXSP,2013-10-21 19:46:00,
2013-10-21 14:51:00,72.7,61.5,29.98,North,0,0.0,0.0,68,0.00,,,0.00,WUHU21623XXSP,2013-10-21 19:51:00,
2013-10-21 14:56:00,72.7,61.5,29.99,North,0,0.0,0.0,68,0.00,,,0.00,WUHU21623XXSP,2013-10-21 19:56:00,
2013-10-21 15:01:00,72.5,61.4,29.98,North,0,0.0,0.0,68,0.00,,,0.00,WUHU21623XXSP,2013-10-21 20:01:00,
2013-10-21 15:06:00,72.5,61.4,29.98,North,0,0.0,0.0,68,0.00,,,0.00,WUHU21623XXSP,2013-10-21 20:06:00,
2013-10-21 15:11:00,72.3,61.2,29.99,North,0,0.0,0.0,69,0.00,,,0.00,WUHU21623XXSP,2013-10-21 20:11:00,
2013-10-21 15:16:00,72.1,61.6,30.00,North,0,0.0,0.0,69,0.00,,,0.00,WUHU21623XXSP,2013-10-21 20:16:00,
2013-10-21 15:21:00,72.0,61.4,30.00,North,0,0.0,0.0,69,0.00,,,0.00,WUHU21623XXSP,2013-10-21 20:21:00,
2013-10-21 15:26:00,72.0,61.3,30.00,North,0,0.0,0.0,69,0.00,,,0.00,WUHU21623XXSP,2013-10-21 20:26:00,
2013-10-21 15:31:00,71.8,61.5,30.01,North,0,0.0,0.0,70,0.00,,,0.00,WUHU21623XXSP,2013-10-21 20:31:00,
2013-10-21 15:36:00,71.8,61.5,30.01,North,0,0.0,0.0,70,0.00,,,0.00,WUHU21623XXSP,2013-10-21 20:36:00,
2013-10-21 15:41:00,71.8,61.5,30.02,North,0,0.0,0.0,70,0.00,,,0.00,WUHU21623XXSP,2013-10-21 20:41:00,
2013-10-21 15:46:00,71.4,61.5,30.02,North,0,0.0,0.0,71,0.00,,,0.00,WUHU21623XXSP,2013-10-21 20:46:00,
2013-10-21 15:51:00,71.4,61.5,30.01,North,0,0.0,0.0,71,0.00,,,0.00,WUHU21623XXSP,2013-10-21 20:51:00,
2013-10-21 15:56:00,71.4,61.9,30.01,North,0,0.0,0.0,72,0.00,,,0.00,WUHU21623XXSP,2013-10-21 20:56:00,
2013-10-21 16:01:00,71.4,61.9,30.01,North,0,0.0,0.0,72,0.00,,,0.00,WUHU21623XXSP,2013-10-21 21:01:00,
2013-10-21 16:06:00,71.2,62.1,30.01,North,0,0.0,0.0,73,0.00,,,0.00,WUHU21623XXSP,2013-10-21 21:06:00,
2013-10-21 16:11:00,71.1,62.5,30.00,North,0,0.0,0.0,74,0.00,,,0.00,WUHU21623XXSP,2013-10-21 21:11:00,
2013-10-21 16:16:00,70.9,62.1,30.01,North,0,0.0,0.0,74,0.00,,,0.00,WUHU21623XXSP,2013-10-21 21:16:00,
2013-10-21 16:21:00,70.9,62.1,30.01,North,0,0.0,0.0,74,0.00,,,0.00,WUHU21623XXSP,2013-10-21 21:21:00,
2013-10-21 16:26:00,70.5,62.0,30.00,North,0,0.0,0.0,75,0.00,,,0.00,WUHU21623XXSP,2013-10-21 21:26:00,
2013-10-21 16:31:00,70.3,62.0,30.00,North,0,0.0,0.0,75,0.00,,,0.00,WUHU21623XXSP,2013-10-21 21:31:00,
2013-10-21 16:36:00,70.3,62.0,30.00,North,0,0.0,0.0,75,0.00,,,0.00,WUHU21623XXSP,2013-10-21 21:36:00,
2013-10-21 16:41:00,70.2,61.8,30.01,North,0,0.0,0.0,75,0.00,,,0.00,WUHU21623XXSP,2013-10-21 21:41:00,
2013-10-21 16:46:00,70.0,61.6,30.01,North,0,0.0,0.0,75,0.00,,,0.00,WUHU21623XXSP,2013-10-21 21:46:00,
2013-10-21 16:51:00,69.8,62.0,30.01,North,0,0.0,0.0,76,0.00,,,0.00,WUHU21623XXSP,2013-10-21 21:51:00,
2013-10-21 16:56:00,69.6,61.6,30.01,North,0,0.0,0.0,77,0.00,,,0.00,WUHU21623XXSP,2013-10-21 21:56:00,
2013-10-21 17:01:00,69.6,62.0,30.00,North,0,0.0,0.0,77,0.00,,,0.00,WUHU21623XXSP,2013-10-21 22:01:00,
2013-10-21 17:06:00,69.4,61.9,30.00,North,0,0.0,0.0,77,0.00,,,0.00,WUHU21623XXSP,2013-10-21 22:06:00,
2013-10-21 17:11:00,69.3,61.7,30.01,North,0,0.0,0.0,78,0.00,,,0.00,WUHU21623XXSP,2013-10-21 22:11:00,
2013-10-21 17:16:00,68.9,61.8,30.00,North,0,0.0,0.0,78,0.00,,,0.00,WUHU21623XXSP,2013-10-21 22:16:00,
2013-10-21 17:21:00,68.9,61.8,30.02,North,0,0.0,0.0,78,0.00,,,0.00,WUHU21623XXSP,2013-10-21 22:21:00,
2013-10-21 17:26:00,68.7,61.6,30.02,North,0,0.0,0.0,78,0.00,,,0.00,WUHU21623XXSP,2013-10-21 22:26:00,
2013-10-21 17:31:00,68.5,61.8,30.02,North,0,0.0,0.0,79,0.00,,,0.00,WUHU21623XXSP,2013-10-21 22:31:00,
2013-10-21 17:36:00,68.4,61.6,30.02,North,0,0.0,0.0,79,0.00,,,0.00,WUHU21623XXSP,2013-10-21 22:36:00,
2013-10-21 17:41:00,68.2,61.5,30.00,North,0,0.0,0.0,79,0.00,,,0.00,WUHU21623XXSP,2013-10-21 22:41:00,
2013-10-21 17:46:00,68.0,61.7,30.00,North,0,0.0,0.0,80,0.00,,,0.00,WUHU21623XXSP,2013-10-21 22:46:00,
2013-10-21 17:51:00,67.8,61.5,30.01,North,0,0.0,0.0,80,0.00,,,0.00,WUHU21623XXSP,2013-10-21 22:51:00,
2013-10-21 17:56:00,67.6,61.7,30.00,North,0,0.0,0.0,81,0.00,,,0.00,WUHU21623XXSP,2013-10-21 22:56:00,
2013-10-21 18:01:00,67.3,61.3,29.99,North,0,0.0,0.0,81,0.00,,,0.00,WUHU21623XXSP,2013-10-21 23:01:00,
2013-10-21 18:06:00,67.3,61.0,30.00,North,0,0.0,0.0,80,0.00,,,0.00,WUHU21623XXSP,2013-10-21 23:06:00,
2013-10-21 18:11:00,67.1,60.8,30.00,North,0,0.0,0.0,80,0.00,,,0.00,WUHU21623XXSP,2013-10-21 23:11:00,
2013-10-21 18:16:00,66.9,60.9,30.01,North,0,0.0,0.0,81,0.00,,,0.00,WUHU21623XXSP,2013-10-21 23:16:00,
2013-10-21 18:21:00,66.7,60.8,30.01,North,0,0.0,0.0,81,0.00,,,0.00,WUHU21623XXSP,2013-10-21 23:21:00,
2013-10-21 18:26:00,66.7,60.8,30.01,North,0,0.0,0.0,81,0.00,,,0.00,WUHU21623XXSP,2013-10-21 23:26:00,
2013-10-21 18:31:00,66.7,60.8,30.01,North,0,0.0,0.0,81,0.00,,,0.00,WUHU21623XXSP,2013-10-21 23:31:00,
2013-10-21 18:36:00,66.4,60.7,30.00,North,0,0.0,0.0,82,0.00,,,0.00,WUHU21623XXSP,2013-10-21 23:36:00,
2013-10-21 18:41:00,66.4,60.7,30.00,North,0,0.0,0.0,82,0.00,,,0.00,WUHU21623XXSP,2013-10-21 23:41:00,
2013-10-21 18:46:00,66.4,60.5,30.00,North,0,0.0,0.0,82,0.00,,,0.00,WUHU21623XXSP,2013-10-21 23:46:00,
2013-10-21 18:51:00,66.2,60.5,30.00,North,0,0.0,0.0,82,0.00,,,0.00,WUHU21623XXSP,2013-10-21 23:51:00,
2013-10-21 18:56:00,66.0,60.7,29.99,North,0,0.0,0.0,83,0.00,,,0.00,WUHU21623XXSP,2013-10-21 23:56:00,
2013-10-21 19:01:00,66.0,60.7,30.02,North,0,0.0,0.0,83,0.00,,,0.00,WUHU21623XXSP,2013-10-22 00:01:00,
2013-10-21 19:06:00,66.0,60.4,30.02,North,0,0.0,0.0,82,0.00,,,0.00,WUHU21623XXSP,2013-10-22 00:06:00,
2013-10-21 19:11:00,65.8,60.2,30.02,North,0,0.0,0.0,82,0.00,,,0.00,WUHU21623XXSP,2013-10-22 00:11:00,
2013-10-21 19:16:00,65.7,60.2,30.03,North,0,0.0,0.0,82,0.00,,,0.00,WUHU21623XXSP,2013-10-22 00:16:00,
2013-10-21 19:21:00,65.7,60.0,30.02,North,0,0.0,0.0,82,0.00,,,0.00,WUHU21623XXSP,2013-10-22 00:21:00,
2013-10-21 19:26:00,65.5,60.2,30.03,North,0,0.0,0.0,83,0.00,,,0.00,WUHU21623XXSP,2013-10-22 00:26:00,
2013-10-21 19:31:00,65.3,60.0,30.02,North,0,0.0,0.0,83,0.00,,,0.00,WUHU21623XXSP,2013-10-22 00:31:00,
2013-10-21 19:36:00,65.3,60.0,30.02,North,0,0.0,0.0,83,0.00,,,0.00,WUHU21623XXSP,2013-10-22 00:36:00,
2013-10-21 19:41:00,65.1,59.8,30.02,North,0,0.0,0.0,83,0.00,,,0.00,WUHU21623XXSP,2013-10-22 00:41:00,
2013-10-21 19:46:00,65.1,59.8,30.00,North,0,0.0,0.0,84,0.00,,,0.00,WUHU21623XXSP,2013-10-22 00:46:00,
2013-10-21 19:51:00,64.9,60.0,30.01,North,0,0.0,0.0,84,0.00,,,0.00,WUHU21623XXSP,2013-10-22 00:51:00,
2013-10-21 19:56:00,64.9,60.0,30.00,North,0,0.0,0.0,84,0.00,,,0.00,WUHU21623XXSP,2013-10-22 00:56:00,
2013-10-21 20:01:00,64.9,60.0,30.01,North,0,0.0,0.0,84,0.00,,,0.00,WUHU21623XXSP,2013-10-22 01:01:00,
2013-10-21 20:06:00,64.9,60.0,30.00,North,0,0.0,0.0,84,0.00,,,0.00,WUHU21623XXSP,2013-10-22 01:06:00,
2013-10-21 20:11:00,64.8,60.2,29.99,North,0,0.0,0.0,85,0.00,,,0.00,WUHU21623XXSP,2013-10-22 01:11:00,
2013-10-21 20:16:00,64.8,60.2,29.99,North,0,0.0,0.0,85,0.00,,,0.00,WUHU21623XXSP,2013-10-22 01:16:00,
2013-10-21 20:21:00,64.8,60.2,29.99,North,0,0.0,0.0,85,0.00,,,0.00,WUHU21623XXSP,2013-10-22 01:21:00,
2013-10-21 20:26:00,64.8,60.2,29.99,North,0,0.0,0.0,85,0.00,,,0.00,WUHU21623XXSP,2013-10-22 01:26:00,
2013-10-21 20:31:00,64.8,60.2,29.99,North,0,0.0,0.0,85,0.00,,,0.00,WUHU21623XXSP,2013-10-22 01:31:00,
2013-10-21 20:36:00,64.8,60.2,29.98,North,0,0.0,0.0,85,0.00,,,0.00,WUHU21623XXSP,2013-10-22 01:36:00,
2013-10-21 20:41:00,64.6,60.0,30.00,North,0,0.0,0.0,85,0.00,,,0.00,WUHU21623XXSP,2013-10-22 01:41:00,
2013-10-21 20:46:00,64.6,60.0,30.00,North,0,0.0,0.0,85,0.00,,,0.00,WUHU21623XXSP,2013-10-22 01:46:00,
2013-10-21 20:51:00,64.6,60.0,30.00,North,0,0.0,0.0,85,0.00,,,0.00,WUHU21623XXSP,2013-10-22 01:51:00,
2013-10-21 20:54:00,64.6,60.0,30.01,North,0,0.0,0.0,85,0.00,,,0.00,WUHU21623XXSP,2013-10-22 01:54:00,
2013-10-21 20:59:00,64.6,60.0,30.02,North,0,0.0,0.0,85,0.00,,,0.00,WUHU21623XXSP,2013-10-22 01:59:00,
2013-10-21 21:04:00,64.6,60.0,30.02,North,0,0.0,0.0,85,0.00,,,0.00,WUHU21623XXSP,2013-10-22 02:04:00,
2013-10-21 21:09:00,64.6,60.0,30.02,North,0,0.0,0.0,85,0.00,,,0.00,WUHU21623XXSP,2013-10-22 02:09:00,
2013-10-21 21:14:00,64.4,59.8,30.02,North,0,0.0,0.0,85,0.00,,,0.00,WUHU21623XXSP,2013-10-22 02:14:00,
2013-10-21 21:19:00,64.2,59.6,30.02,North,0,0.0,0.0,85,0.00,,,0.00,WUHU21623XXSP,2013-10-22 02:19:00,
2013-10-21 21:24:00,64.2,60.0,30.00,North,0,0.0,0.0,86,0.00,,,0.00,WUHU21623XXSP,2013-10-22 02:24:00,
2013-10-21 21:29:00,64.2,60.0,30.00,North,0,0.0,0.0,86,0.00,,,0.00,WUHU21623XXSP,2013-10-22 02:29:00,
2013-10-21 21:34:00,64.2,60.0,30.00,North,0,0.0,0.0,86,0.00,,,0.00,WUHU21623XXSP,2013-10-22 02:34:00,
2013-10-21 21:39:00,64.2,60.0,30.00,North,0,0.0,0.0,86,0.00,,,0.00,WUHU21623XXSP,2013-10-22 02:39:00,
2013-10-21 21:44:00,64.2,60.0,30.00,North,0,0.0,0.0,86,0.00,,,0.00,WUHU21623XXSP,2013-10-22 02:44:00,
2013-10-21 21:49:00,64.2,60.0,30.00,North,0,0.0,0.0,86,0.00,,,0.00,WUHU21623XXSP,2013-10-22 02:49:00,
2013-10-21 21:54:00,64.2,60.0,30.00,North,0,0.0,0.0,86,0.00,,,0.00,WUHU21623XXSP,2013-10-22 02:54:00,
2013-10-21 21:59:00,64.2,60.0,30.00,North,0,0.0,0.0,86,0.00,,,0.00,WUHU21623XXSP,2013-10-22 02:59:00,
2013-10-21 22:04:00,64.2,60.0,30.00,North,0,0.0,0.0,86,0.00,,,0.00,WUHU21623XXSP,2013-10-22 03:04:00,
2013-10-21 22:09:00,64.2,60.0,30.00,North,0,0.0,0.0,86,0.00,,,0.00,WUHU21623XXSP,2013-10-22 03:09:00,
2013-10-21 22:14:00,64.0,59.8,30.00,North,0,0.0,0.0,86,0.00,,,0.00,WUHU21623XXSP,2013-10-22 03:14:00,
2013-10-21 22:19:00,64.0,59.8,30.00,North,0,0.0,0.0,86,0.00,,,0.00,WUHU21623XXSP,2013-10-22 03:19:00,
2013-10-21 22:24:00,64.0,59.8,30.00,North,0,0.0,0.0,86,0.00,,,0.00,WUHU21623XXSP,2013-10-22 03:24:00,
2013-10-21 22:29:00,64.0,59.8,30.00,North,0,0.0,0.0,86,0.00,,,0.00,WUHU21623XXSP,2013-10-22 03:29:00,
2013-10-21 22:34:00,64.0,59.8,30.00,North,0,0.0,0.0,86,0.00,,,0.00,WUHU21623XXSP,2013-10-22 03:34:00,
2013-10-21 22:39:00,64.0,60.1,30.00,North,0,0.0,0.0,87,0.00,,,0.00,WUHU21623XXSP,2013-10-22 03:39:00,
2013-10-21 22:44:00,64.0,60.1,29.99,North,0,0.0,0.0,87,0.00,,,0.00,WUHU21623XXSP,2013-10-22 03:44:00,
2013-10-21 22:49:00,64.0,60.1,29.99,North,0,0.0,0.0,87,0.00,,,0.00,WUHU21623XXSP,2013-10-22 03:49:00,
2013-10-21 22:54:00,63.9,60.0,29.99,North,0,0.0,0.0,87,0.00,,,0.00,WUHU21623XXSP,2013-10-22 03:54:00,
2013-10-21 22:59:00,63.9,60.0,29.99,North,0,0.0,0.0,87,0.00,,,0.00,WUHU21623XXSP,2013-10-22 03:59:00,
2013-10-21 23:01:00,63.7,59.8,29.99,North,0,0.0,0.0,87,0.00,,,0.00,WUHU21623XXSP,2013-10-22 04:01:00,
2013-10-21 23:02:00,63.7,59.8,29.99,North,0,0.0,0.0,87,0.00,,,0.00,WUHU21623XXSP,2013-10-22 04:02:00,
2013-10-21 23:07:00,63.7,59.8,29.99,North,0,0.0,0.0,87,0.00,,,0.00,WUHU21623XXSP,2013-10-22 04:07:00,
2013-10-21 23:12:00,63.7,59.8,29.99,North,0,0.0,0.0,87,0.00,,,0.00,WUHU21623XXSP,2013-10-22 04:12:00,
2013-10-21 23:17:00,63.7,59.8,29.99,North,0,0.0,0.0,87,0.00,,,0.00,WUHU21623XXSP,2013-10-22 04:17:00,
2013-10-21 23:22:00,63.7,59.8,29.99,North,0,0.0,0.0,87,0.00,,,0.00,WUHU21623XXSP,2013-10-22 04:22:00,
2013-10-21 23:27:00,63.7,59.8,29.99,North,0,0.0,0.0,87,0.00,,,0.00,WUHU21623XXSP,2013-10-22 04:27:00,
2013-10-21 23:32:00,63.7,59.8,29.99,North,0,0.0,0.0,87,0.00,,,0.00,WUHU21623XXSP,2013-10-22 04:32:00,
2013-10-21 23:37:00,63.9,60.0,29.99,North,0,0.0,0.0,87,0.00,,,0.00,WUHU21623XXSP,2013-10-22 04:37:00,
2013-10-21 23:42:00,63.7,59.8,29.98,North,0,0.0,0.0,87,0.00,,,0.00,WUHU21623XXSP,2013-10-22 04:42:00,
2013-10-21 23:47:00,63.7,59.8,29.98,North,0,0.0,0.0,87,0.00,,,0.00,WUHU21623XXSP,2013-10-22 04:47:00,
2013-10-21 23:52:00,63.7,59.8,29.98,North,0,0.0,0.0,87,0.00,,,0.00,WUHU21623XXSP,2013-10-22 04:52:00,
2013-10-21 23:57:00,63.7,59.8,29.98,North,0,0.0,0.0,87,0.00,,,0.00,WUHU21623XXSP,2013-10-22 04:57:00,